Create Custom Reports and Graphics: Custom Report

Scotts Valley

Current Conditions

6/19/21 6:15 PM (-07:00)
Updated Every 15 Minutes
Temp 96.9 °F   3.1
RH 11 %   8
Dew Pt 33.4 °F   16.9
Wet Bulb 57.6 °F   6.1
Wind Dir SW | 232 °
Wind Spd 5.1 mph   1.4
Wind Gust 14.4 mph   5.6
BatVolt 13.0 V   0.0
Monthly Rain 0.00 In
Seasonal Rainfall 11.86 In

Today & Yesterday

Midnight to Midnight

6/19/21 6:15 PM (-07:00)
Updated Every 15 Minutes
Daily Max Temp 105.3 °F   2.6
Time of Max Temp 1520
Daily Min Temp 51.3 °F   3.5
Time of Min Temp 0547
Daily Max Wind 14.4 mph   3.1
Time of Max Wind 1803
Max Wind Dir WSW | 237 °
Daily Rain 0.00 In
Daily Leaf Wet Hrs 0.0 hrs   0.0
Yesterday's Max Temp 107.9 °F
Yesterday’s Min Temp 47.8 °F
Yesterday's Max Wind 13.5 mph
Yesterday's Rainfall 0.00 In
Leaf Wet Hrs Yest 0.0 Hours

Last 7 Days

Scotts Valley

Hourly Data | America/Los_Angeles
as of 6/19/21 6:28 PM PDT
Date & Time Temp (°F) RH (%) Dew Pt (°F) Wind Dir (°) Wind Spd (mph) Wind Gust (mph) Leaf Wet (mins) BatVolt (V) Latest Rain (In) Daily Rain (In) Daily Min Temp (°F) Daily Max Temp (°F) Daily Max Wind (mph) Daily Leaf Wet Hrs (hrs)
6/19/21 - 1800 98.6 12 36.6 SW | 225 5.8 13.2 0.0 12.9 0.00 0.00 51.3 105.3 13.8 0.0
6/19/21 - 1700 101.0 13 41.8 SW | 227 4.9 13.8 0.0 12.9 0.00 0.00 51.3 105.3 13.8 0.0
6/19/21 - 1600 103.4 13 42.7 SSW | 206 3.7 10.5 0.0 12.9 0.00 0.00 51.3 105.3 12.0 0.0
6/19/21 - 1500 103.4 12 41.0 ESE | 112 4.3 12.0 0.0 12.9 0.00 0.00 51.3 104.8 12.0 0.0
6/19/21 - 1400 101.5 14 42.5 ESE | 119 3.3 10.5 0.0 13.0 0.00 0.00 51.3 103.2 11.0 0.0
6/19/21 - 1300 98.9 15 42.6 ESE | 123 3.9 11.0 0.0 13.0 0.00 0.00 51.3 100.6 11.0 0.0
6/19/21 - 1200 95.6 20 47.6 SSE | 150 3.0 8.4 0.0 13.0 0.00 0.00 51.3 97.6 8.4 0.0
6/19/21 - 1100 90.2 27 51.1 SSE | 148 1.7 6.1 0.0 13.0 0.00 0.00 51.3 93.4 6.1 0.0
6/19/21 - 1000 84.2 36 54.3 SW | 222 0.8 3.7 0.0 13.1 0.00 0.00 51.3 87.1 3.7 0.0
6/19/21 - 0900 75.9 48 54.7 SW | 219 0.6 2.5 0.0 13.2 0.00 0.00 51.3 80.9 2.5 0.0
6/19/21 - 0800 66.0 61 52.2 WNW | 296 0.1 1.6 0.0 13.2 0.00 0.00 51.3 71.1 1.8 0.0
6/19/21 - 0700 52.6 84 48.0 SW | 224 0.0 0.8 0.0 12.8 0.00 0.00 51.3 59.2 1.8 0.0
6/19/21 - 0600 51.7 83 46.8 SW | 226 0.1 1.4 0.0 12.7 0.00 0.00 51.3 59.2 1.8 0.0
6/19/21 - 0500 52.9 80 46.8 SW | 227 0.1 1.1 0.0 12.7 0.00 0.00 52.2 59.2 1.8 0.0
6/19/21 - 0400 54.2 77 47.0 SW | 219 0.3 1.8 0.0 12.7 0.00 0.00 53.3 59.2 1.8 0.0
6/19/21 - 0300 56.0 72 47.3 WSW | 240 0.2 1.2 0.0 12.7 0.00 0.00 55.4 59.2 1.4 0.0
6/19/21 - 0200 58.0 68 47.4 NW | 319 0.3 1.4 0.0 12.7 0.00 0.00 56.8 59.2 1.4 0.0
6/19/21 - 0100 60.4 62 47.1 SE | 125 0.3 2.0 0.0 12.7 0.00 0.00 47.8 107.9 13.5 0.0
6/19/21 - 0000 63.0 55 46.8 SW | 216 0.3 2.8 0.0 12.8 0.00 0.00 47.8 107.9 13.5 0.0
6/18/21 - 2300 66.6 50 47.3 NE | 35 0.2 1.6 0.0 12.8 0.00 0.00 47.8 107.9 13.5 0.0
6/18/21 - 2200 73.0 39 46.6 N | 355 0.3 2.1 0.0 12.8 0.00 0.00 47.8 107.9 13.5 0.0
6/18/21 - 2100 83.6 27 45.7 SW | 227 0.7 3.8 0.0 12.8 0.00 0.00 47.8 107.9 13.5 0.0
6/18/21 - 2000 93.5 20 45.8 W | 267 2.0 9.2 0.0 12.9 0.00 0.00 47.8 107.9 13.5 0.0
6/18/21 - 1900 98.4 18 48.3 W | 266 4.2 13.5 0.0 13.0 0.00 0.00 47.8 107.9 13.5 0.0
6/18/21 - 1800 102.6 18 51.6 W | 279 3.1 11.3 0.0 12.9 0.00 0.00 47.8 107.9 11.3 0.0
6/18/21 - 1700 105.5 13 43.8 WSW | 243 3.4 11.0 0.0 12.9 0.00 0.00 47.8 107.9 11.0 0.0
6/18/21 - 1600 106.4 10 39.5 S | 171 3.4 9.9 0.0 12.9 0.00 0.00 47.8 107.3 10.4 0.0
6/18/21 - 1500 105.0 13 44.6 S | 184 3.3 10.4 0.0 12.9 0.00 0.00 47.8 105.9 10.4 0.0
6/18/21 - 1400 102.9 14 44.6 NE | 56 2.0 6.7 0.0 12.9 0.00 0.00 47.8 104.5 6.7 0.0
6/18/21 - 1300 100.1 16 45.2 SSE | 148 2.2 6.2 0.0 13.0 0.00 0.00 47.8 101.8 6.2 0.0
6/18/21 - 1200 96.0 20 48.6 S | 169 2.0 5.8 0.0 13.0 0.00 0.00 47.8 99.4 5.8 0.0
6/18/21 - 1100 91.2 27 52.6 SE | 130 1.6 4.4 0.0 13.0 0.00 0.00 47.8 94.2 4.4 0.0
6/18/21 - 1000 83.8 34 52.6 SE | 130 1.1 3.9 0.0 13.1 0.00 0.00 47.8 89.0 3.9 0.0
6/18/21 - 0900 76.6 41 51.0 E | 82 0.5 3.0 0.0 13.2 0.00 0.00 47.8 80.8 3.0 0.0
6/18/21 - 0800 64.9 59 50.0 NE | 34 0.2 1.4 0.0 13.2 0.00 0.00 47.8 71.4 2.2 0.0
6/18/21 - 0700 49.6 91 47.0 N | 6 0.1 1.0 0.0 12.8 0.00 0.00 47.8 57.2 2.2 0.0
6/18/21 - 0600 48.5 91 46.0 N | 6 0.1 1.3 0.0 12.7 0.00 0.00 48.0 57.2 2.2 0.0
6/18/21 - 0500 49.9 89 46.8 N | 5 0.1 1.3 0.0 12.7 0.00 0.00 49.2 57.2 2.2 0.0
6/18/21 - 0400 51.7 85 47.3 WSW | 257 0.1 1.8 0.0 12.7 0.00 0.00 50.6 57.2 2.2 0.0
6/18/21 - 0300 53.9 80 47.7 SW | 215 0.1 2.1 0.0 12.7 0.00 0.00 52.7 57.2 2.2 0.0
6/18/21 - 0200 56.4 74 48.2 SE | 145 0.3 2.2 0.0 12.7 0.00 0.00 55.2 57.2 2.2 0.0
6/18/21 - 0100 58.2 71 48.8 E | 80 0.3 2.3 0.0 12.7 0.00 0.00 44.4 104.1 12.3 0.0
6/18/21 - 0000 61.5 63 48.8 WNW | 297 0.2 2.4 0.0 12.7 0.00 0.00 44.4 104.1 12.3 0.0
6/17/21 - 2300 65.6 54 48.6 ESE | 109 0.5 2.4 0.0 12.8 0.00 0.00 44.4 104.1 12.3 0.0
6/17/21 - 2200 72.6 42 48.0 SW | 232 0.2 1.6 0.0 12.8 0.00 0.00 44.4 104.1 12.3 0.0
6/17/21 - 2100 82.7 30 47.9 WSW | 250 0.9 7.7 0.0 12.8 0.00 0.00 44.4 104.1 12.3 0.0
6/17/21 - 2000 90.7 24 49.3 W | 263 3.0 9.3 0.0 12.9 0.00 0.00 44.4 104.1 12.3 0.0
6/17/21 - 1900 96.3 19 46.8 W | 266 3.6 11.6 0.0 13.0 0.00 0.00 44.4 104.1 12.3 0.0
6/17/21 - 1800 99.2 15 43.1 W | 270 4.1 12.3 0.0 12.9 0.00 0.00 44.4 104.1 12.3 0.0
6/17/21 - 1700 102.1 12 39.8 W | 277 3.0 11.8 0.0 12.9 0.00 0.00 44.4 104.1 11.8 0.0
6/17/21 - 1600 102.5 13 42.3 WNW | 296 3.2 10.7 0.0 12.9 0.00 0.00 44.4 104.1 10.7 0.0
6/17/21 - 1500 101.9 14 43.2 ESE | 110 2.2 6.9 0.0 12.9 0.00 0.00 44.4 103.0 8.8 0.0
6/17/21 - 1400 98.8 16 44.8 ESE | 116 3.4 8.8 0.0 13.0 0.00 0.00 44.4 100.1 8.8 0.0
6/17/21 - 1300 95.6 17 44.4 ENE | 77 2.5 7.6 0.0 13.0 0.00 0.00 44.4 98.8 7.6 0.0
6/17/21 - 1200 91.4 25 50.2 ESE | 122 2.0 6.7 0.0 13.0 0.00 0.00 44.4 94.2 6.7 0.0
6/17/21 - 1100 85.7 34 54.1 SE | 141 2.7 6.0 0.0 13.1 0.00 0.00 44.4 88.0 6.0 0.0
6/17/21 - 1000 80.2 34 49.5 NE | 53 1.0 4.5 0.0 13.2 0.00 0.00 44.4 83.8 4.5 0.0
6/17/21 - 0900 72.4 46 50.3 N | 358 0.9 3.4 0.0 13.3 0.00 0.00 44.4 77.7 3.4 0.0
6/17/21 - 0800 59.9 67 48.5 NE | 51 0.2 1.5 0.0 13.2 0.00 0.00 44.4 66.4 2.2 0.0
6/17/21 - 0700 45.7 95 44.3 N | 0 0.0 0.0 0.0 12.8 0.00 0.00 44.4 54.3 2.2 0.0
6/17/21 - 0600 45.2 93 43.3 S | 176 0.2 1.3 0.0 12.7 0.00 0.00 44.6 54.3 2.2 0.0
6/17/21 - 0500 46.5 91 44.0 SSW | 204 0.1 1.2 0.0 12.7 0.00 0.00 45.7 54.3 2.2 0.0
6/17/21 - 0400 48.3 87 44.8 SSW | 206 0.2 1.5 0.0 12.7 0.00 0.00 47.3 54.3 2.2 0.0
6/17/21 - 0300 50.6 83 45.6 WSW | 241 0.2 2.2 0.0 12.7 0.00 0.00 49.1 54.3 2.2 0.0
6/17/21 - 0200 53.1 77 46.2 SSW | 196 0.1 1.5 0.0 12.7 0.00 0.00 51.9 54.3 1.5 0.0
6/17/21 - 0100 55.9 72 47.0 WNW | 301 0.1 1.4 0.0 12.8 0.00 0.00 38.7 97.7 14.7 2.5
6/17/21 - 0000 59.4 64 47.1 WSW | 248 0.6 3.0 0.0 12.8 0.00 0.00 38.7 97.7 14.7 2.5
6/16/21 - 2300 64.4 55 47.7 SSE | 158 0.5 2.5 0.0 12.8 0.00 0.00 38.7 97.7 14.7 2.5
6/16/21 - 2200 72.1 42 47.7 WSW | 247 0.6 3.5 0.0 12.8 0.00 0.00 38.7 97.7 14.7 2.5
6/16/21 - 2100 80.3 33 48.4 W | 272 1.3 7.8 0.0 12.9 0.00 0.00 38.7 97.7 14.7 2.5
6/16/21 - 2000 86.0 28 49.4 W | 266 3.3 10.0 0.0 13.0 0.00 0.00 38.7 97.7 14.7 2.5
6/16/21 - 1900 89.7 26 49.8 W | 262 4.0 10.7 0.0 13.1 0.00 0.00 38.7 97.7 14.7 2.5
6/16/21 - 1800 93.2 22 48.5 W | 262 4.2 14.7 0.0 13.0 0.00 0.00 38.7 97.7 14.7 2.5
6/16/21 - 1700 95.0 19 46.3 WSW | 252 4.6 12.5 0.0 13.0 0.00 0.00 38.7 97.7 12.5 2.5
6/16/21 - 1600 96.7 13 37.6 NW | 309 2.4 11.6 0.0 12.9 0.00 0.00 38.7 97.7 11.6 2.5
6/16/21 - 1500 95.4 11 32.5 NW | 316 2.9 9.4 0.0 13.0 0.00 0.00 38.7 96.4 10.1 2.5
6/16/21 - 1400 92.3 11 28.8 N | 360 2.3 10.1 0.0 13.0 0.00 0.00 38.7 95.1 10.1 2.5
6/16/21 - 1300 87.6 21 43.2 ESE | 120 2.6 6.4 0.0 13.1 0.00 0.00 38.7 90.3 8.7 2.5
6/16/21 - 1200 83.1 31 49.3 SE | 136 3.2 8.7 0.0 13.1 0.00 0.00 38.7 85.2 8.7 2.5
6/16/21 - 1100 78.3 34 47.5 ENE | 60 1.7 6.8 0.0 13.2 0.00 0.00 38.7 82.1 6.8 2.5
6/16/21 - 1000 72.5 45 49.9 SE | 140 2.0 6.2 0.0 13.2 0.00 0.00 38.7 75.9 6.2 2.5
6/16/21 - 0900 67.0 50 47.8 ENE | 57 0.8 3.5 0.0 13.4 0.00 0.00 38.7 70.7 4.3 2.5
6/16/21 - 0800 54.8 75 46.8 NNW | 347 0.8 4.3 0.0 13.2 0.00 0.00 38.7 62.1 4.3 2.5
6/16/21 - 0700 41.3 97 40.6 SE | 143 0.5 2.2 45.7 12.8 0.00 0.00 38.7 47.0 2.5 2.5
6/16/21 - 0600 39.2 96 38.2 S | 174 0.5 2.3 60.0 12.7 0.00 0.00 38.7 47.0 2.5 1.8
6/16/21 - 0500 40.4 95 39.1 SSE | 164 0.2 1.2 45.7 12.7 0.00 0.00 39.5 47.0 2.5 0.8
6/16/21 - 0400 41.5 94 39.9 E | 98 0.3 1.9 0.0 12.7 0.00 0.00 41.0 47.0 2.5 0.0
6/16/21 - 0300 43.2 92 40.9 SE | 126 0.2 1.9 0.0 12.7 0.00 0.00 42.0 47.0 2.5 0.0
6/16/21 - 0200 45.5 89 42.4 ESE | 119 0.4 2.5 0.0 12.8 0.00 0.00 44.4 47.0 2.5 0.0
6/16/21 - 0100 48.3 84 43.5 SE | 126 0.6 3.1 0.0 12.8 0.00 0.00 37.3 84.4 16.1 2.7
6/16/21 - 0000 51.7 76 44.4 ESE | 108 0.7 2.8 0.0 12.8 0.00 0.00 37.3 84.4 16.1 2.7
6/15/21 - 2300 56.9 65 45.2 S | 191 0.7 3.9 0.0 12.8 0.00 0.00 37.3 84.4 16.1 2.7
6/15/21 - 2200 62.2 55 45.9 WSW | 252 1.6 8.0 0.0 12.9 0.00 0.00 37.3 84.4 16.1 2.7
6/15/21 - 2100 65.8 49 46.1 W | 264 3.7 11.0 0.0 12.9 0.00 0.00 37.3 84.4 16.1 2.7
6/15/21 - 2000 70.5 44 47.3 WSW | 257 4.0 12.5 0.0 13.1 0.00 0.00 37.3 84.4 16.1 2.7
6/15/21 - 1900 77.5 34 47.1 W | 281 3.4 10.8 0.0 13.2 0.00 0.00 37.3 84.4 16.1 2.7
6/15/21 - 1800 81.4 29 46.4 NW | 316 2.8 13.0 0.0 13.1 0.00 0.00 37.3 84.4 16.1 2.7
6/15/21 - 1700 81.4 30 46.8 W | 270 4.6 14.2 0.0 13.1 0.00 0.00 37.3 84.4 16.1 2.7
6/15/21 - 1600 82.3 26 43.9 W | 269 5.1 16.1 0.0 13.1 0.00 0.00 37.3 84.4 16.1 2.7
6/15/21 - 1500 82.7 21 38.6 NW | 322 3.1 10.6 0.0 13.1 0.00 0.00 37.3 84.4 15.2 2.7
6/15/21 - 1400 80.1 20 34.8 NNW | 348 3.3 13.3 0.0 13.1 0.00 0.00 37.3 81.2 15.2 2.7
6/15/21 - 1300 77.1 23 35.9 N | 1 3.1 12.0 0.0 13.2 0.00 0.00 37.3 79.3 15.2 2.7
6/15/21 - 1200 73.5 26 36.3 NNW | 347 3.9 15.2 0.0 13.2 0.00 0.00 37.3 75.8 15.2 2.7
6/15/21 - 1100 69.7 33 39.3 N | 351 4.1 14.6 0.0 13.2 0.00 0.00 37.3 71.7 14.6 2.7
6/15/21 - 1000 66.9 43 43.5 N | 355 3.3 10.1 0.0 13.3 0.00 0.00 37.3 68.0 10.1 2.7
6/15/21 - 0900 61.7 57 46.4 NNW | 337 2.0 7.7 0.0 13.4 0.00 0.00 37.3 64.6 7.7 2.7
6/15/21 - 0800 54.2 75 46.1 NE | 51 1.1 4.2 0.0 13.3 0.00 0.00 37.3 58.5 4.2 2.7
6/15/21 - 0700 39.8 97 39.0 SE | 145 0.3 2.2 49.3 12.8 0.00 0.00 37.3 49.1 3.5 2.7
6/15/21 - 0600 38.4 96 37.3 WSW | 253 0.3 2.4 60.0 12.7 0.00 0.00 37.6 49.1 3.5 1.8
6/15/21 - 0500 38.9 94 37.5 ESE | 107 0.2 1.9 50.2 12.7 0.00 0.00 38.4 49.1 3.5 0.8
6/15/21 - 0400 40.6 93 38.8 WSW | 246 0.3 3.5 0.0 12.8 0.00 0.00 39.5 49.1 3.5 0.0
6/15/21 - 0300 42.9 89 39.9 SSE | 154 0.5 2.4 0.0 12.8 0.00 0.00 41.2 49.1 2.7 0.0
6/15/21 - 0200 46.2 84 41.8 SW | 220 0.7 2.7 0.0 12.8 0.00 0.00 45.2 49.1 2.7 0.0
6/15/21 - 0100 52.4 71 43.3 W | 267 1.3 5.6 0.0 12.8 0.00 0.00 49.1 76.6 16.1 1.1
6/15/21 - 0000 54.4 68 44.0 W | 260 2.1 10.0 0.0 12.8 0.00 0.00 52.1 76.6 16.1 1.1
6/14/21 - 2300 55.6 65 44.2 W | 260 1.9 8.9 0.0 12.9 0.00 0.00 52.1 76.6 16.1 1.1
6/14/21 - 2200 57.7 61 44.3 W | 270 2.1 7.0 0.0 12.9 0.00 0.00 52.1 76.6 16.1 1.1
6/14/21 - 2100 60.9 57 45.4 W | 272 2.1 10.3 0.0 13.0 0.00 0.00 52.1 76.6 16.1 1.1
6/14/21 - 2000 65.5 47 44.7 W | 273 3.0 16.1 0.0 13.1 0.00 0.00 52.1 76.6 16.1 1.1
6/14/21 - 1900 70.4 37 43.2 WNW | 302 3.2 14.7 0.0 13.3 0.00 0.00 52.1 76.6 15.1 1.1
6/14/21 - 1800 73.0 32 41.8 WNW | 287 3.7 15.1 0.0 13.2 0.00 0.00 52.1 76.6 15.1 1.1
6/14/21 - 1700 74.4 34 44.2 W | 274 4.9 15.0 0.0 13.2 0.00 0.00 52.1 76.6 15.0 1.1
6/14/21 - 1600 75.4 34 45.3 WNW | 285 4.2 14.1 0.0 13.1 0.00 0.00 52.1 76.6 14.8 1.1
6/14/21 - 1500 75.3 34 44.9 W | 277 4.4 14.8 0.0 13.2 0.00 0.00 52.1 76.4 14.8 1.1
6/14/21 - 1400 74.3 38 47.2 WNW | 303 3.6 12.5 0.0 13.2 0.00 0.00 52.1 75.9 14.0 1.1
6/14/21 - 1300 72.9 40 47.1 W | 266 3.9 14.0 0.0 13.3 0.00 0.00 52.1 74.0 14.0 1.1
6/14/21 - 1200 71.1 44 47.9 W | 276 3.8 12.9 0.0 13.2 0.00 0.00 52.1 72.2 12.9 1.1
6/14/21 - 1100 70.2 50 50.6 W | 273 3.4 11.7 0.0 13.2 0.00 0.00 52.1 72.0 12.4 1.1
6/14/21 - 1000 67.2 58 51.9 W | 265 2.9 12.4 0.0 13.3 0.00 0.00 52.1 69.4 12.4 1.1
6/14/21 - 0900 66.1 62 52.9 WNW | 294 1.8 7.6 0.0 13.4 0.00 0.00 52.1 67.3 8.1 1.1
6/14/21 - 0800 62.0 77 54.5 NNW | 334 0.7 5.7 0.0 13.4 0.00 0.00 52.1 65.7 8.1 1.1
6/14/21 - 0700 52.7 95 51.4 SW | 218 0.6 2.5 48.5 12.9 0.00 0.00 52.1 63.5 8.1 1.1
6/14/21 - 0600 54.0 93 52.1 WSW | 241 0.6 2.0 19.7 12.7 0.00 0.00 52.5 63.5 8.1 0.3
6/14/21 - 0500 57.5 89 54.3 WSW | 237 0.7 4.9 0.0 12.7 0.00 0.00 55.5 63.5 8.1 0.0
6/14/21 - 0400 60.0 84 55.1 WSW | 244 1.8 8.1 0.0 12.8 0.00 0.00 58.3 63.5 8.1 0.0
6/14/21 - 0300 61.8 80 55.7 NNW | 337 0.7 4.6 0.0 12.8 0.00 0.00 60.9 63.5 4.8 0.0
6/14/21 - 0200 63.4 77 56.2 NNW | 330 1.3 4.8 0.0 12.8 0.00 0.00 63.1 63.5 4.8 0.0
6/14/21 - 0100 63.6 78 56.5 NW | 317 1.1 6.7 0.0 12.8 0.00 0.00 47.9 82.5 19.4 4.7
6/14/21 - 0000 63.7 77 56.4 S | 185 1.2 3.9 0.0 12.8 0.00 0.00 47.9 82.5 19.4 4.7
6/13/21 - 2300 64.6 74 56.3 S | 184 1.4 6.0 0.0 12.8 0.00 0.00 47.9 82.5 19.4 4.7
6/13/21 - 2200 64.4 74 56.1 N | 1 0.4 3.0 0.0 12.9 0.00 0.00 47.9 82.5 19.4 4.7
6/13/21 - 2100 65.8 71 56.3 W | 260 2.5 8.6 0.0 13.0 0.00 0.00 47.9 82.5 19.4 4.7
6/13/21 - 2000 70.2 62 56.6 W | 262 4.2 11.8 0.0 13.1 0.00 0.00 47.9 82.5 19.4 4.7
6/13/21 - 1900 75.0 52 56.3 WSW | 252 5.2 13.9 0.0 13.2 0.00 0.00 47.9 82.5 19.4 4.7
6/13/21 - 1800 78.8 43 54.4 WSW | 253 5.3 13.4 0.0 13.1 0.00 0.00 47.9 82.5 19.4 4.7
6/13/21 - 1700 80.6 37 52.2 SW | 233 5.3 16.2 0.0 13.1 0.00 0.00 47.9 82.5 19.4 4.7
6/13/21 - 1600 81.4 36 52.0 SW | 230 5.6 19.4 0.0 13.1 0.00 0.00 47.9 82.5 19.4 4.7
6/13/21 - 1500 81.5 34 50.1 SW | 230 5.0 13.6 0.0 13.1 0.00 0.00 47.9 82.5 13.6 4.7
6/13/21 - 1400 80.5 34 49.5 WSW | 257 3.3 13.4 0.0 13.1 0.00 0.00 47.9 81.7 13.4 4.7
6/13/21 - 1300 78.3 44 54.4 SW | 219 2.7 8.6 0.0 13.2 0.00 0.00 47.9 80.1 8.6 4.7
6/13/21 - 1200 75.4 52 56.4 SE | 134 2.8 8.3 0.0 13.2 0.00 0.00 47.9 77.6 8.4 4.7
6/13/21 - 1100 72.0 57 55.8 SSE | 167 2.2 8.4 0.0 13.2 0.00 0.00 47.9 74.8 8.4 4.7
6/13/21 - 1000 68.3 63 55.4 NW | 311 2.0 7.0 0.0 13.3 0.00 0.00 47.9 70.4 7.0 4.7
6/13/21 - 0900 66.1 70 56.1 NNE | 25 1.8 5.2 0.0 13.4 0.00 0.00 47.9 67.6 5.8 4.7
6/13/21 - 0800 60.6 85 56.1 N | 357 1.6 5.8 0.0 13.3 0.00 0.00 47.9 64.1 5.8 4.7
6/13/21 - 0700 49.9 98 49.3 ENE | 72 0.1 1.2 58.4 12.8 0.00 0.00 47.9 54.3 3.1 4.7
6/13/21 - 0600 48.7 97 47.8 N | 349 0.1 1.5 60.0 12.8 0.00 0.00 47.9 54.2 3.1 3.7
6/13/21 - 0500 50.2 96 49.2 NNE | 13 0.2 1.8 60.0 12.8 0.00 0.00 49.3 54.2 3.1 2.7
6/13/21 - 0400 51.1 96 50.1 NW | 321 0.5 3.1 60.0 12.8 0.00 0.00 50.6 54.2 3.1 1.7
6/13/21 - 0300 51.5 95 50.1 NNE | 15 0.2 1.4 42.0 12.8 0.00 0.00 51.0 54.2 2.5 0.7
6/13/21 - 0200 53.2 94 51.4 WSW | 254 0.1 2.5 0.0 12.8 0.00 0.00 52.4 54.2 2.5 0.0
6/13/21 - 0100 55.2 90 52.4 WNW | 295 0.5 2.4 0.0 12.8 0.00 0.00 50.4 84.5 13.9 0.0
6/13/21 - 0000 58.7 85 54.2 W | 270 0.6 2.8 0.0 12.8 0.00 0.00 50.4 84.5 13.9 0.0
6/12/21 - 2300 62.1 78 55.0 NW | 326 0.1 2.2 0.0 12.8 0.00 0.00 50.4 84.5 13.9 0.0
6/12/21 - 2200 66.8 69 56.3 WNW | 287 1.1 5.8 0.0 12.9 0.00 0.00 50.4 84.5 13.9 0.0
6/12/21 - 2100 70.8 61 56.8 W | 263 3.0 8.3 0.0 12.9 0.00 0.00 50.4 84.5 13.9 0.0
6/12/21 - 2000 75.0 54 57.2 W | 266 3.5 10.1 0.0 13.0 0.00 0.00 50.4 84.5 13.9 0.0
6/12/21 - 1900 79.1 47 57.3 WNW | 288 3.0 11.4 0.0 13.2 0.00 0.00 50.4 84.5 13.9 0.0
Max 106.4 98 57.3 - 5.8 19.4 60.0 13.4 0.00 0.00 63.1 107.9 19.4 4.7
Avg 70.3 54 47.3 - 1.9 6.9 3.9 13.0 0.00 - - - - -
Min 38.4 10 28.8 - 0.0 0.0 0.0 12.7 0.00 0.00 37.3 47.0 1.4 0.0
Total - - - - - - - - 0.00 - - - - -

Last 30 Days

Scotts Valley

Daily Data | America/Los_Angeles
as of 6/19/21 6:28 PM PDT
Date Daily Max Temp (°F) Time of Max Temp Daily Min Temp (°F) Time of Min Temp Daily Rain (In) Monthly Rain (In) Seasonal Rainfall (In) Daily Max Wind (mph) Time of Max Wind Max Wind Dir (°) Wind Spd (mph) Dew Pt (°F) Max RH (%) Min RH (%) Daily Leaf Wet Hrs (hrs) Degree Hrs (hrs) Chilling <=45F (hrs) Chill Hrs 32-45F (hrs) Utah Chilling (Units) Hrs <= 32F (hrs) Hrs <= 28F (hrs) GDDs (DL) GDDs (Mx/Mn) Seas GDDs (DL) Seas GDDs (Smpl) Hrs 70-85F (hrs) Hrs > 95F (hrs) Powdery Mildew Stress (pts) Bee Hrs Today (Hrs) Daily Max Rain Intensity (In/Hr) Time of Max Rain Intensity Max 1 Min Rain (In) Max 1 Min Rain Time Max 15 Min Rain (In) Max 15 Min Precip Time Max 60 Min Rain (In) Max 60 Min Rain Time Bat Volt Min Day (V)
6/18/21 107.9 1603 47.8 0611 0.00 0.00 11.86 13.5 1831 W | 271 1.3 47.3 95 9 0.0 410.1 0.0 0.0 -14.0 0.0 0.0 28.6 27.8 981 708 1.64 7.78 50 13.4 - - - - - - - - 12.6
6/17/21 104.1 1531 44.4 0605 0.00 0.00 11.86 12.3 1733 NW | 308 1.4 46.5 97 10 0.0 362.7 1.0 1.0 -11.0 0.0 0.0 25.9 24.2 952 680 2.08 6.47 60 13.1 - - - - - - - - 12.6
6/16/21 97.7 1537 38.7 0523 0.00 0.00 11.86 14.7 1733 WSW | 242 1.7 44.0 98 6 2.5 279.2 5.3 5.3 -8.5 0.0 0.0 21.9 18.2 926 656 3.02 2.38 70 12.9 - - - - - - - - 12.5
6/15/21 84.4 1455 37.3 0610 0.00 0.00 11.86 16.1 1521 SW | 228 2.2 42.2 98 16 2.7 128.9 5.0 5.0 -6.0 0.0 0.0 14.4 10.8 904 638 9.03 0.00 80 12.9 - - - - - - - - 12.6
6/14/21 76.6 1546 49.1 0101 0.00 0.00 11.86 16.1 1908 W | 280 2.5 48.4 96 29 1.1 76.0 0.0 0.0 -13.5 0.0 0.0 14.5 12.9 890 627 8.14 0.00 60 13.3 - - - - - - - - 12.6
6/13/21 82.5 1416 47.9 0555 0.00 0.00 11.86 19.4 1553 W | 280 2.3 53.5 99 26 4.7 128.8 0.0 0.0 -12.5 0.0 0.0 16.6 15.2 875 614 9.57 0.00 40 13.3 - - - - - - - - 12.6
6/12/21 84.5 1511 50.4 0219 0.00 0.00 11.86 13.9 1601 W | 273 1.9 54.6 96 38 0.0 152.3 0.0 0.0 -13.0 0.0 0.0 17.5 17.4 859 599 11.30 0.00 20 13.5 - - - - - - - - 12.6
6/11/21 77.4 1519 41.2 0606 0.00 0.00 11.86 15.2 1312 WNW | 284 2.0 41.9 88 29 0.0 57.6 4.3 4.3 -4.5 0.0 0.0 11.5 9.3 841 581 5.67 0.00 0 12.4 - - - - - - - - 12.6
6/10/21 74.8 1630 32.4 0607 0.00 0.00 11.86 16.8 1704 SW | 219 1.9 36.2 98 19 2.3 32.8 5.8 5.8 0.5 0.0 0.0 8.4 3.6 830 572 3.06 0.00 0 11.8 - - - - - - - - 12.6
6/9/21 68.8 1421 30.3 0553 0.00 0.00 11.86 20.1 1736 WNW | 302 2.6 36.4 98 30 2.7 2.7 6.4 3.8 0.5 2.6 0.0 5.8 0.0 821 568 0.00 0.00 0 11.1 - - - - - - - - 12.6
6/8/21 69.4 1440 40.2 0042 0.00 0.00 11.86 18.1 1605 NW | 310 3.1 37.4 86 25 0.0 6.7 4.0 4.0 4.0 0.0 0.0 6.1 4.8 816 568 0.00 0.00 10 11.2 - - - - - - - - 12.7
6/7/21 72.6 1309 35.3 0613 0.00 0.00 11.86 21.2 1403 W | 274 2.9 36.9 96 24 0.0 27.6 4.6 4.6 0.0 0.0 0.0 8.4 3.9 809 564 2.56 0.00 20 12.3 - - - - - - - - 12.5
6/6/21 83.7 1425 42.4 0457 0.00 0.00 11.86 20.0 1639 WNW | 283 2.3 39.7 95 12 0.0 138.6 4.0 4.0 -6.0 0.0 0.0 14.9 13.0 801 560 9.73 0.00 30 13.0 - - - - - - - - 12.6
6/5/21 91.8 1517 45.4 0610 0.00 0.00 11.86 17.0 1858 SW | 234 1.9 43.6 91 17 0.0 213.6 0.0 0.0 -9.0 0.0 0.0 18.7 18.6 786 547 3.25 0.00 10 13.2 - - - - - - - - 12.6
6/4/21 91.8 1427 46.6 0550 0.00 0.00 11.86 17.4 1708 W | 275 2.2 47.7 90 25 0.0 247.0 0.0 0.0 -11.0 0.0 0.0 20.7 19.2 768 528 3.75 0.00 20 13.2 - - - - - - - - 12.5
6/3/21 96.6 1500 50.6 0552 0.00 0.00 11.86 18.7 1411 WNW | 296 1.7 48.6 96 16 0.0 303.7 0.0 0.0 -14.0 0.0 0.0 24.0 23.6 747 509 3.32 2.63 30 13.4 - - - - - - - - 12.5
6/2/21 98.6 1411 46.5 0549 0.00 0.00 11.86 15.6 1817 WSW | 253 1.6 50.2 94 16 0.0 330.1 0.0 0.0 -13.0 0.0 0.0 24.7 22.5 723 485 3.00 3.92 40 13.1 - - - - - - - - 12.5
6/1/21 101.2 1520 50.6 0557 0.00 0.00 11.86 13.0 1638 WNW | 283 1.6 47.9 87 9 0.0 372.2 0.0 0.0 -14.5 0.0 0.0 27.1 25.9 698 463 2.32 6.70 50 13.4 - - - - - - - - 12.6
5/31/21 102.4 1607 46.9 0602 0.00 0.12 11.86 14.1 1729 W | 259 1.2 46.3 95 12 0.0 362.1 0.0 0.0 -13.0 0.0 0.0 26.1 24.7 671 437 1.71 6.49 60 13.1 - - - - - - - - 12.5
5/30/21 97.0 1436 42.6 0548 0.00 0.12 11.86 14.2 1709 WNW | 294 1.4 45.1 96 13 0.0 282.5 2.7 2.7 -9.0 0.0 0.0 22.0 19.8 645 412 2.35 2.36 70 12.8 - - - - - - - - 12.6
5/29/21 88.4 1527 42.6 0612 0.00 0.12 11.86 15.0 1605 W | 280 1.8 46.1 98 18 0.0 200.2 2.8 2.8 -7.5 0.0 0.0 17.7 15.5 623 392 3.58 0.00 80 12.9 - - - - - - - - 12.5
5/28/21 89.5 1621 41.4 0606 0.00 0.12 11.86 15.2 1709 W | 279 1.5 46.3 98 18 5.2 181.9 3.7 3.7 -6.5 0.0 0.0 17.2 15.5 605 377 3.91 0.00 90 12.6 - - - - - - - - 12.6
5/27/21 80.6 1313 35.6 0554 0.00 0.12 11.86 19.7 1548 SW | 226 2.1 44.3 98 20 2.1 115.6 6.1 6.1 -6.0 0.0 0.0 14.0 8.1 588 361 9.77 0.00 100 12.4 - - - - - - - - 12.6
5/26/21 85.6 1558 36.8 0606 0.00 0.12 11.86 15.7 1303 S | 180 1.7 41.2 99 21 5.7 132.1 7.6 7.6 -1.5 0.0 0.0 13.5 11.2 574 353 9.19 0.00 100 11.9 - - - - - - - - 12.6
5/25/21 75.6 1427 41.1 0508 0.00 0.12 11.86 17.9 1525 W | 277 2.2 45.6 98 36 2.9 56.9 2.8 2.8 -4.0 0.0 0.0 10.4 8.3 560 342 6.36 0.00 100 12.0 - - - - - - - - 12.6
5/24/21 79.9 1439 35.4 0618 0.00 0.12 11.86 17.3 1635 W | 265 2.3 42.4 98 25 2.2 99.6 6.3 6.3 -3.0 0.0 0.0 12.7 7.6 550 334 8.68 0.00 100 12.3 - - - - - - - - 12.6
5/23/21 78.9 1532 38.8 0614 0.00 0.12 11.86 14.1 1642 WSW | 253 1.8 38.9 87 25 0.0 77.9 3.1 3.1 -3.5 0.0 0.0 11.7 8.8 537 326 7.61 0.00 80 12.4 - - - - - - - - 12.6
5/22/21 74.4 1417 33.2 0453 0.00 0.12 11.86 15.8 1913 W | 264 1.9 36.7 98 21 1.3 44.2 6.4 6.4 -5.0 0.0 0.0 10.2 3.8 526 317 3.69 0.00 60 11.5 - - - - - - - - 12.7
5/21/21 69.2 1527 28.8 0514 0.00 0.12 11.86 17.9 1453 WNW | 288 2.1 35.5 98 26 3.7 8.6 7.8 4.1 -2.5 3.7 0.0 7.1 0.0 516 314 0.00 0.00 70 10.8 - - - - - - - - 12.6
5/20/21 63.4 1533 38.5 0059 0.02 0.12 11.86 25.3 1402 SW | 236 3.3 35.2 88 30 2.0 0.0 10.1 10.1 11.5 0.0 0.0 3.8 1.0 508 314 0.00 0.00 80 9.0 0.22 1934 0.01 1932 0.02 1935 0.02 1935 12.7
Max 107.9 - 50.6 - 0.02 0.12 - 25.3 - - 3.3 54.6 99 38 5.7 410.1 10.1 10.1 11.5 3.7 0.0 28.6 27.8 - - 11.30 7.78 - 13.5 - - - - - - - - 12.7
Avg - - - - - 0.05 - - - - 2.0 43.5 - - - - 3.3 3.1 -6.5 0.2 0.0 15.9 13.2 - - 4.61 1.29 - 12.5 - - - - - - - - -
Min 63.4 - 28.8 - 0.00 0.00 - 12.3 - - 1.2 35.2 86 6 0.0 0.0 0.0 0.0 -14.5 0.0 0.0 3.8 0.0 - - 0.00 0.00 - 9.0 - - - - - - - - 12.5
Total - - - - - - - - - - - - - - - - 99.7 93.3 -195.5 6.3 0.0 476.2 395.5 - - 138.31 38.72 - 374.3 - - - - - - - - -

Climate Summary

Scotts Valley

Current Year | Showing 1/1/21 - 6/18/21
as of 6/19/21 6:28 PM PDT
Temperature (°F) Precip (in) Days
Month Days Avg Max Avg Min Max Max Min Min Total Daily Min Temp < 28 Daily Min Temp < 32 Daily Max Temp > 90 Daily Max Temp > 100 Daily Rain > 0.01 Daily Rain > 0.1
Jan 2021 31 56.4 31 78.2 16.7 3.73 8 20 0 0 16 5
Feb 2021 28 61.3 29.2 73.9 22.3 1.92 14 21 0 0 10 5
Mar 2021 31 62 28.2 78.9 22.3 2.2 14 26 0 0 6 5
Apr 2021 30 74.9 32.1 88.8 26.6 0.1 4 17 0 0 1 0
May 2021 31 81.7 38.9 102.4 28.8 0.12 0 2 3 1 2 0
Jun 2021 18 86.9 43.2 107.9 30.3 0 0 1 8 3 0 0
Total 169 - - - - 8.07 40 87 11 4 35 15
Average 28.2 70.5 33.8 - - 1.34 6.7 14.5 1.8 0.7 5.8 2.5
Maximum 31 86.9 43.2 107.9 - 3.73 14 26 8 3 16 5
Minimum 18 56.4 28.2 - 16.7 0 0 1 0 0 0 0

Climate Summary

Scotts Valley

Last Year | Showing 1/1/20 - 12/31/20
as of 6/19/21 6:28 PM PDT
Temperature (°F) Precip (in) Days
Month Days Avg Max Avg Min Max Max Min Min Total Daily Min Temp < 28 Daily Min Temp < 32 Daily Max Temp > 90 Daily Max Temp > 100 Daily Rain > 0.01 Daily Rain > 0.1
Jan 2020 31 56.1 31.6 72.9 21.2 2.5 10 20 0 0 13 5
Feb 2020 29 67.8 27.1 77.4 19.7 0 19 26 0 0 0 0
Mar 2020 31 61.3 31.2 80.9 23 1.02 6 21 0 0 8 5
Apr 2020 30 71.3 37.4 87.3 23.8 0.71 2 7 0 0 4 3
May 2020 31 77.8 40.1 96.3 28.4 1.08 0 4 8 0 5 4
Jun 2020 30 86.7 46.2 105.4 31.1 0 0 1 15 3 0 0
Jul 2020 31 94.5 47.6 99.7 39.7 0 0 0 26 0 0 0
Aug 2020 31 95.9 50.9 104.1 40.7 0.09 0 0 28 4 2 0
Sep 2020 30 91.1 44 109.7 35.1 0 0 0 16 4 0 0
Oct 2020 31 87.1 35.9 97.1 26.8 0 3 9 14 0 0 0
Nov 2020 30 65.6 26.5 87.7 15.5 0.84 18 23 0 0 4 2
Dec 2020 31 59.9 26.3 73.5 18.6 2.87 24 27 0 0 8 5
Total 366 - - - - 9.11 82 138 107 11 44 24
Average 30.5 76.2 37.1 - - 0.76 6.8 11.5 8.9 0.9 3.7 2
Maximum 31 95.9 50.9 109.7 - 2.87 24 27 28 4 13 5
Minimum 29 56.1 26.3 - 15.5 0 0 0 0 0 0 0
Calm: 8.2%
Calm: 0.4%